Flight Track Log - Related Links

Times and Time Zones

All times are in EDT time to prevent confusion due to time zone crossing. See the CES2232 flight status page for this flight to view local times or setup timezone preferences in your user account.

Time Position Orientation Groundspeed Altitude Reporting Facility
EDT Latitude Longitude Course Direction KTS MPH feet Rate Location/Type
Fri 08:47:00 AM 33.5126 105.6717 68° East  Level Estimated
Fri 08:48:00 AM 33.5404 105.7588 69° East  Level Estimated
Fri 08:49:00 AM 33.5681 105.8460 69° East  Level Estimated
Fri 08:50:00 AM 33.5958 105.9333 69° East  Level Estimated
Fri 08:51:00 AM 33.6234 106.0206 69° East  Level Estimated
Fri 08:52:00 AM 33.6509 106.1079 69° East  Level Estimated
Fri 08:53:00 AM 33.6784 106.1953 69° East  Level Estimated
Fri 08:54:00 AM 33.7058 106.2828 69° East  Level Estimated
Fri 08:55:00 AM 33.7332 106.3703 69° East  Level Estimated
Fri 08:56:00 AM 33.7604 106.4579 69° East  Level Estimated
Fri 08:57:00 AM 33.7877 106.5456 69° East  Level Estimated
Fri 08:58:00 AM 33.8148 106.6333 70° East  Level Estimated
Fri 08:59:00 AM 33.8419 106.7210 70° East  Level Estimated
Fri 09:00:00 AM 33.8690 106.8088 70° East  Level Estimated
Fri 09:01:00 AM 33.8960 106.8967 70° East  Level Estimated
Fri 09:02:00 AM 33.9229 106.9846 70° East  Level Estimated
Fri 09:03:00 AM 33.9497 107.0726 70° East  Level Estimated
Fri 09:04:00 AM 33.9765 107.1606 70° East  Level Estimated
Fri 09:05:00 AM 34.0033 107.2487 70° East  Level Estimated
Fri 09:06:00 AM 34.0299 107.3368 70° East  Level Estimated
Fri 09:07:00 AM 34.0565 107.4250 70° East  Level Estimated
Fri 09:08:00 AM 34.0831 107.5133 70° East  Level Estimated
Fri 09:09:00 AM 34.1096 107.6016 70° East  Level Estimated
Fri 09:10:00 AM 34.1360 107.6899 70° East  Level Estimated
Fri 09:11:00 AM 34.1623 107.7784 70° East  Level Estimated
Fri 09:12:00 AM 34.1886 107.8668 70° East  Level Estimated
Fri 09:13:00 AM 34.2148 107.9554 70° East  Level Estimated
Fri 09:14:00 AM 34.2410 108.0440 70° East  Level Estimated
Fri 09:15:00 AM 34.2671 108.1326 70° East  Level Estimated
Fri 09:16:00 AM 34.2931 108.2213 70° East  Level Estimated
Fri 09:17:00 AM 34.3191 108.3100 70° East  Level Estimated
Fri 09:18:00 AM 34.3450 108.3988 71° East  Level Estimated
Fri 09:19:00 AM 34.3708 108.4877 71° East  Level Estimated
Fri 09:20:00 AM 34.3966 108.5766 71° East  Level Estimated
Fri 09:21:00 AM 34.4223 108.6656 71° East  Level Estimated
Fri 09:22:00 AM 34.4471 108.7516 71° East  Level Estimated
Fri 09:23:00 AM 34.4471 108.7516 121° Southeast  Level Estimated
Fri 09:24:00 AM 34.4471 108.7516 121° Southeast  Level Estimated
Fri 09:25:00 AM 34.4471 108.7516 121° Southeast  Level Estimated
Fri 09:26:00 AM 34.4471 108.7516 121° Southeast  Level Estimated
Fri 09:27:00 AM 34.4471 108.7516 121° Southeast  Level Estimated
Fri 09:28:00 AM 34.4471 108.7516 121° Southeast  Level Estimated
Fri 09:29:00 AM 34.4471 108.7516 121° Southeast  Level Estimated
Fri 09:30:00 AM 34.4471 108.7516 121° Southeast  Level Estimated
Fri 09:31:00 AM 34.4471 108.7516 121° Southeast  Level Estimated
Fri 09:32:00 AM 34.4471 108.7516 121° Southeast  Level Estimated
Fri 09:33:00 AM 34.4471 108.7516 121° Southeast  Level Estimated
Fri 09:34:00 AM 34.4471 108.7516 121° Southeast  Level Estimated
Fri 09:35:00 AM 34.4471 108.7516 121° Southeast  Level Estimated
Fri 09:36:00 AM 34.4471 108.7516 121° Southeast  Level Estimated
Fri 09:37:00 AM 34.4471 108.7516 121° Southeast  Level Estimated
Fri 09:38:00 AM 34.4471 108.7516 121° Southeast  Level Estimated
Fri 09:39:00 AM 34.4471 108.7516 121° Southeast  Level Estimated
Fri 09:40:00 AM 34.4471 108.7516 121° Southeast  Level Estimated
Fri 09:41:00 AM 34.4471 108.7516 121° Southeast  Level Estimated
Fri 09:42:00 AM 34.4471 108.7516 121° Southeast  Level Estimated
Fri 09:43:00 AM 34.4471 108.7516 121° Southeast  Level Estimated
Fri 09:44:00 AM 34.4471 108.7516 121° Southeast  Level Estimated
Fri 09:45:00 AM 34.4471 108.7516 121° Southeast  Level Estimated
Fri 09:46:00 AM 34.4471 108.7516 121° Southeast  Level Estimated
Fri 09:47:00 AM 34.4471 108.7516 121° Southeast  Level Estimated
Fri 09:48:00 AM 34.4471 108.7516 121° Southeast  Level Estimated
Fri 09:49:00 AM 34.4471 108.7516 121° Southeast  Level Estimated
Fri 09:50:00 AM 34.4471 108.7516 121° Southeast  Level Estimated

Login

Don't have an account? Register now (free) for customized features, flight alerts, and more!